Allardt, Tennessee
Current Conditions -  °F | °C
As of 6:53 PM on Friday 21 Nov 2014 (Local Time) from KCSV Reporting Station
Clear Clear  
Wind Chill: 39°   Ceiling: Unl
Heat Index: 39°   Visibility: 10mi
Dew Point: 16°   Wind: 0mph
Humidity: 39%   Direction: NA
Pressure: 30.4"   Gusts: NA
Location:  36.38°N, 84.88°W
Report Text: KCSV 220053Z AUTO 00000KT 10SM CLR 04/M09 A3040 RMK AO2 SLP305 T00391089
Loading
Personal Weather Stations






























Interactive Weather Map New forecast layout! Learn more

10-Day Weather Forecast

Advertisements
Track Severe Weather on mobile